sensor_id;sensor_type;location;lat;lon;timestamp;temperature;humidity
72712;SHT30;60828;40.292;17.998;2022-07-22T00:01:14;26.25;52.19
72712;SHT30;60828;40.292;17.998;2022-07-22T00:03:39;26.01;53.11
72712;SHT30;60828;40.292;17.998;2022-07-22T00:06:05;25.79;53.41
72712;SHT30;60828;40.292;17.998;2022-07-22T00:08:31;25.76;53.55
72712;SHT30;60828;40.292;17.998;2022-07-22T00:10:57;25.67;53.40
72712;SHT30;60828;40.292;17.998;2022-07-22T00:13:22;25.73;53.75
72712;SHT30;60828;40.292;17.998;2022-07-22T00:15:48;25.49;56.06
72712;SHT30;60828;40.292;17.998;2022-07-22T00:18:13;25.45;56.44
72712;SHT30;60828;40.292;17.998;2022-07-22T00:20:39;25.49;56.43
72712;SHT30;60828;40.292;17.998;2022-07-22T00:23:04;25.50;56.35
72712;SHT30;60828;40.292;17.998;2022-07-22T00:25:30;25.46;55.80
72712;SHT30;60828;40.292;17.998;2022-07-22T00:27:55;25.35;55.24
72712;SHT30;60828;40.292;17.998;2022-07-22T00:30:21;25.21;55.10
72712;SHT30;60828;40.292;17.998;2022-07-22T00:32:47;25.18;54.87
72712;SHT30;60828;40.292;17.998;2022-07-22T00:35:12;25.16;54.76
72712;SHT30;60828;40.292;17.998;2022-07-22T00:37:37;25.10;54.49
72712;SHT30;60828;40.292;17.998;2022-07-22T00:40:04;25.03;54.58
72712;SHT30;60828;40.292;17.998;2022-07-22T00:42:30;24.98;54.60
72712;SHT30;60828;40.292;17.998;2022-07-22T00:44:55;24.99;54.42
72712;SHT30;60828;40.292;17.998;2022-07-22T00:47:21;25.04;54.31
72712;SHT30;60828;40.292;17.998;2022-07-22T00:49:46;25.11;54.22
72712;SHT30;60828;40.292;17.998;2022-07-22T00:52:12;25.12;54.04
72712;SHT30;60828;40.292;17.998;2022-07-22T00:54:38;25.26;53.75
72712;SHT30;60828;40.292;17.998;2022-07-22T00:57:04;25.36;53.70
72712;SHT30;60828;40.292;17.998;2022-07-22T00:59:30;25.39;53.53
72712;SHT30;60828;40.292;17.998;2022-07-22T01:01:55;25.42;53.16
72712;SHT30;60828;40.292;17.998;2022-07-22T01:04:21;25.47;52.61
72712;SHT30;60828;40.292;17.998;2022-07-22T01:06:46;25.26;52.40
72712;SHT30;60828;40.292;17.998;2022-07-22T01:09:13;24.99;52.68
72712;SHT30;60828;40.292;17.998;2022-07-22T01:11:39;24.77;53.12
72712;SHT30;60828;40.292;17.998;2022-07-22T01:14:08;24.67;53.11
72712;SHT30;60828;40.292;17.998;2022-07-22T01:16:34;24.57;53.07
72712;SHT30;60828;40.292;17.998;2022-07-22T01:18:59;24.52;53.42
72712;SHT30;60828;40.292;17.998;2022-07-22T01:21:25;24.57;53.31
72712;SHT30;60828;40.292;17.998;2022-07-22T01:23:50;24.61;52.89
72712;SHT30;60828;40.292;17.998;2022-07-22T01:26:16;24.53;52.85
72712;SHT30;60828;40.292;17.998;2022-07-22T01:28:42;24.55;52.45
72712;SHT30;60828;40.292;17.998;2022-07-22T01:31:09;24.67;51.46
72712;SHT30;60828;40.292;17.998;2022-07-22T01:33:35;24.77;50.55
72712;SHT30;60828;40.292;17.998;2022-07-22T01:36:01;24.70;49.98
72712;SHT30;60828;40.292;17.998;2022-07-22T01:38:26;24.76;49.29
72712;SHT30;60828;40.292;17.998;2022-07-22T01:40:52;24.81;49.52
72712;SHT30;60828;40.292;17.998;2022-07-22T01:43:18;24.78;48.97
72712;SHT30;60828;40.292;17.998;2022-07-22T01:45:47;24.74;48.44
72712;SHT30;60828;40.292;17.998;2022-07-22T01:48:13;24.80;48.18
72712;SHT30;60828;40.292;17.998;2022-07-22T01:50:39;24.76;48.02
72712;SHT30;60828;40.292;17.998;2022-07-22T01:53:05;24.76;47.53
72712;SHT30;60828;40.292;17.998;2022-07-22T01:55:31;24.78;47.54
72712;SHT30;60828;40.292;17.998;2022-07-22T01:57:57;24.86;46.84
72712;SHT30;60828;40.292;17.998;2022-07-22T02:00:22;24.91;46.98
72712;SHT30;60828;40.292;17.998;2022-07-22T02:02:48;24.99;46.68
72712;SHT30;60828;40.292;17.998;2022-07-22T02:05:14;25.14;46.09
72712;SHT30;60828;40.292;17.998;2022-07-22T02:07:39;25.15;45.57
72712;SHT30;60828;40.292;17.998;2022-07-22T02:10:05;25.22;44.85
72712;SHT30;60828;40.292;17.998;2022-07-22T02:12:31;25.32;45.23
72712;SHT30;60828;40.292;17.998;2022-07-22T02:14:56;25.29;44.82
72712;SHT30;60828;40.292;17.998;2022-07-22T02:17:22;25.29;44.68
72712;SHT30;60828;40.292;17.998;2022-07-22T02:19:48;25.32;44.21
72712;SHT30;60828;40.292;17.998;2022-07-22T02:22:13;25.35;43.91
72712;SHT30;60828;40.292;17.998;2022-07-22T02:24:39;25.22;44.06
72712;SHT30;60828;40.292;17.998;2022-07-22T02:27:04;25.22;44.26
72712;SHT30;60828;40.292;17.998;2022-07-22T02:29:31;25.22;44.54
72712;SHT30;60828;40.292;17.998;2022-07-22T02:31:57;25.21;45.41
72712;SHT30;60828;40.292;17.998;2022-07-22T02:34:22;25.07;45.90
72712;SHT30;60828;40.292;17.998;2022-07-22T02:36:48;25.04;46.01
72712;SHT30;60828;40.292;17.998;2022-07-22T02:39:13;24.87;46.59
72712;SHT30;60828;40.292;17.998;2022-07-22T02:41:39;24.83;46.44
72712;SHT30;60828;40.292;17.998;2022-07-22T02:44:04;24.80;46.42
72712;SHT30;60828;40.292;17.998;2022-07-22T02:46:30;24.78;45.65
72712;SHT30;60828;40.292;17.998;2022-07-22T02:48:56;24.80;45.36
72712;SHT30;60828;40.292;17.998;2022-07-22T02:51:22;24.77;45.33
72712;SHT30;60828;40.292;17.998;2022-07-22T02:53:48;24.67;45.45
72712;SHT30;60828;40.292;17.998;2022-07-22T02:56:14;24.76;45.11
72712;SHT30;60828;40.292;17.998;2022-07-22T02:58:40;24.73;45.06
72712;SHT30;60828;40.292;17.998;2022-07-22T03:01:06;24.60;45.20
72712;SHT30;60828;40.292;17.998;2022-07-22T03:03:32;24.49;45.28
72712;SHT30;60828;40.292;17.998;2022-07-22T03:05:58;24.49;45.25
72712;SHT30;60828;40.292;17.998;2022-07-22T03:08:23;24.63;44.82
72712;SHT30;60828;40.292;17.998;2022-07-22T03:10:49;24.60;44.97
72712;SHT30;60828;40.292;17.998;2022-07-22T03:13:14;24.48;45.35
72712;SHT30;60828;40.292;17.998;2022-07-22T03:15:40;24.43;45.51
72712;SHT30;60828;40.292;17.998;2022-07-22T03:18:05;24.26;45.81
72712;SHT30;60828;40.292;17.998;2022-07-22T03:20:31;24.19;46.00
72712;SHT30;60828;40.292;17.998;2022-07-22T03:22:58;24.23;45.91
72712;SHT30;60828;40.292;17.998;2022-07-22T03:25:24;24.25;45.87
72712;SHT30;60828;40.292;17.998;2022-07-22T03:27:49;24.29;45.76
72712;SHT30;60828;40.292;17.998;2022-07-22T03:30:16;24.28;45.71
72712;SHT30;60828;40.292;17.998;2022-07-22T03:32:41;24.25;45.50
72712;SHT30;60828;40.292;17.998;2022-07-22T03:35:11;24.33;45.37
72712;SHT30;60828;40.292;17.998;2022-07-22T03:37:36;24.26;45.47
72712;SHT30;60828;40.292;17.998;2022-07-22T03:40:03;24.33;45.83
72712;SHT30;60828;40.292;17.998;2022-07-22T03:42:28;24.26;45.84
72712;SHT30;60828;40.292;17.998;2022-07-22T03:44:54;24.16;46.09
72712;SHT30;60828;40.292;17.998;2022-07-22T03:47:20;24.00;46.62
72712;SHT30;60828;40.292;17.998;2022-07-22T03:49:47;23.95;46.71
72712;SHT30;60828;40.292;17.998;2022-07-22T03:52:13;23.97;46.70
72712;SHT30;60828;40.292;17.998;2022-07-22T03:54:40;24.11;46.42
72712;SHT30;60828;40.292;17.998;2022-07-22T03:57:05;24.18;45.95
72712;SHT30;60828;40.292;17.998;2022-07-22T03:59:31;24.29;45.46
72712;SHT30;60828;40.292;17.998;2022-07-22T04:01:56;24.32;44.75
72712;SHT30;60828;40.292;17.998;2022-07-22T04:04:22;24.40;44.92
72712;SHT30;60828;40.292;17.998;2022-07-22T04:06:48;24.49;44.64
72712;SHT30;60828;40.292;17.998;2022-07-22T04:09:16;24.60;44.29
72712;SHT30;60828;40.292;17.998;2022-07-22T04:11:42;24.56;44.28
72712;SHT30;60828;40.292;17.998;2022-07-22T04:14:07;24.68;43.98
72712;SHT30;60828;40.292;17.998;2022-07-22T04:16:33;24.74;44.07
72712;SHT30;60828;40.292;17.998;2022-07-22T04:19:00;24.88;44.06
72712;SHT30;60828;40.292;17.998;2022-07-22T04:21:26;24.84;44.04
72712;SHT30;60828;40.292;17.998;2022-07-22T04:23:52;24.87;44.02
72712;SHT30;60828;40.292;17.998;2022-07-22T04:26:18;24.88;43.79
72712;SHT30;60828;40.292;17.998;2022-07-22T04:28:43;24.92;43.50
72712;SHT30;60828;40.292;17.998;2022-07-22T04:31:09;25.14;43.17
72712;SHT30;60828;40.292;17.998;2022-07-22T04:33:34;25.10;43.01
72712;SHT30;60828;40.292;17.998;2022-07-22T04:36:00;25.21;43.00
72712;SHT30;60828;40.292;17.998;2022-07-22T04:38:26;25.31;43.03
72712;SHT30;60828;40.292;17.998;2022-07-22T04:40:52;25.38;42.88
72712;SHT30;60828;40.292;17.998;2022-07-22T04:43:18;25.38;42.58
72712;SHT30;60828;40.292;17.998;2022-07-22T04:45:43;25.63;42.06
72712;SHT30;60828;40.292;17.998;2022-07-22T04:48:09;26.17;40.55
72712;SHT30;60828;40.292;17.998;2022-07-22T04:50:37;26.45;39.67
72712;SHT30;60828;40.292;17.998;2022-07-22T04:53:03;26.11;39.99
72712;SHT30;60828;40.292;17.998;2022-07-22T04:55:29;25.90;40.62
72712;SHT30;60828;40.292;17.998;2022-07-22T04:57:54;25.94;40.64
72712;SHT30;60828;40.292;17.998;2022-07-22T05:00:20;25.76;40.76
72712;SHT30;60828;40.292;17.998;2022-07-22T05:02:46;25.79;40.96
72712;SHT30;60828;40.292;17.998;2022-07-22T05:05:12;25.91;40.82
72712;SHT30;60828;40.292;17.998;2022-07-22T05:07:37;26.11;40.56
72712;SHT30;60828;40.292;17.998;2022-07-22T05:10:03;26.28;40.26
72712;SHT30;60828;40.292;17.998;2022-07-22T05:12:28;26.45;40.02
72712;SHT30;60828;40.292;17.998;2022-07-22T05:14:54;26.57;39.71
72712;SHT30;60828;40.292;17.998;2022-07-22T05:17:19;26.79;39.50
72712;SHT30;60828;40.292;17.998;2022-07-22T05:19:45;26.99;39.23
72712;SHT30;60828;40.292;17.998;2022-07-22T05:22:10;27.23;38.77
72712;SHT30;60828;40.292;17.998;2022-07-22T05:24:36;27.42;38.34
72712;SHT30;60828;40.292;17.998;2022-07-22T05:27:02;27.66;38.55
72712;SHT30;60828;40.292;17.998;2022-07-22T05:29:28;28.45;37.90
72712;SHT30;60828;40.292;17.998;2022-07-22T05:31:56;28.82;37.48
72712;SHT30;60828;40.292;17.998;2022-07-22T05:34:22;29.31;36.72
72712;SHT30;60828;40.292;17.998;2022-07-22T05:36:48;29.75;36.26
72712;SHT30;60828;40.292;17.998;2022-07-22T05:39:13;30.83;34.45
72712;SHT30;60828;40.292;17.998;2022-07-22T05:41:39;31.54;33.84
72712;SHT30;60828;40.292;17.998;2022-07-22T05:44:05;33.07;31.32
72712;SHT30;60828;40.292;17.998;2022-07-22T05:46:31;35.36;27.96
72712;SHT30;60828;40.292;17.998;2022-07-22T05:48:56;36.79;26.01
72712;SHT30;60828;40.292;17.998;2022-07-22T05:51:22;38.43;24.49
72712;SHT30;60828;40.292;17.998;2022-07-22T05:53:49;40.97;22.24
72712;SHT30;60828;40.292;17.998;2022-07-22T05:56:14;42.37;20.75
72712;SHT30;60828;40.292;17.998;2022-07-22T05:58:41;43.27;19.88
72712;SHT30;60828;40.292;17.998;2022-07-22T06:01:07;44.02;19.85
72712;SHT30;60828;40.292;17.998;2022-07-22T06:03:33;44.76;19.19
72712;SHT30;60828;40.292;17.998;2022-07-22T06:06:00;44.21;19.40
72712;SHT30;60828;40.292;17.998;2022-07-22T06:08:28;44.22;19.36
72712;SHT30;60828;40.292;17.998;2022-07-22T06:10:53;43.61;19.87
72712;SHT30;60828;40.292;17.998;2022-07-22T06:13:19;43.98;19.46
72712;SHT30;60828;40.292;17.998;2022-07-22T06:15:45;44.89;18.83
72712;SHT30;60828;40.292;17.998;2022-07-22T06:18:11;44.63;19.27
72712;SHT30;60828;40.292;17.998;2022-07-22T06:20:37;45.99;18.73
72712;SHT30;60828;40.292;17.998;2022-07-22T06:23:03;46.47;18.34
72712;SHT30;60828;40.292;17.998;2022-07-22T06:25:29;45.95;18.62
72712;SHT30;60828;40.292;17.998;2022-07-22T06:27:54;46.61;18.64
72712;SHT30;60828;40.292;17.998;2022-07-22T06:30:20;46.88;18.13
72712;SHT30;60828;40.292;17.998;2022-07-22T06:32:45;46.26;17.83
72712;SHT30;60828;40.292;17.998;2022-07-22T06:35:11;46.03;18.15
72712;SHT30;60828;40.292;17.998;2022-07-22T06:37:37;45.20;18.59
72712;SHT30;60828;40.292;17.998;2022-07-22T06:40:03;44.33;18.90
72712;SHT30;60828;40.292;17.998;2022-07-22T06:42:29;43.88;19.27
72712;SHT30;60828;40.292;17.998;2022-07-22T06:44:54;44.55;19.07
72712;SHT30;60828;40.292;17.998;2022-07-22T06:47:20;44.52;19.22
72712;SHT30;60828;40.292;17.998;2022-07-22T06:49:46;44.89;19.47
72712;SHT30;60828;40.292;17.998;2022-07-22T06:52:11;46.00;18.45
72712;SHT30;60828;40.292;17.998;2022-07-22T06:54:37;43.97;19.92
72712;SHT30;60828;40.292;17.998;2022-07-22T06:57:02;43.32;19.90
72712;SHT30;60828;40.292;17.998;2022-07-22T06:59:28;44.42;19.57
72712;SHT30;60828;40.292;17.998;2022-07-22T07:01:53;44.43;19.46
72712;SHT30;60828;40.292;17.998;2022-07-22T07:04:19;44.38;19.50
72712;SHT30;60828;40.292;17.998;2022-07-22T07:06:44;44.08;19.61
72712;SHT30;60828;40.292;17.998;2022-07-22T07:09:10;44.15;19.60
72712;SHT30;60828;40.292;17.998;2022-07-22T07:11:36;43.13;19.51
72712;SHT30;60828;40.292;17.998;2022-07-22T07:14:02;43.36;19.42
72712;SHT30;60828;40.292;17.998;2022-07-22T07:16:27;42.82;18.51
72712;SHT30;60828;40.292;17.998;2022-07-22T07:18:52;43.08;18.53
72712;SHT30;60828;40.292;17.998;2022-07-22T07:21:18;42.24;18.17
72712;SHT30;60828;40.292;17.998;2022-07-22T07:23:44;41.75;18.96
72712;SHT30;60828;40.292;17.998;2022-07-22T07:26:09;40.15;19.82
72712;SHT30;60828;40.292;17.998;2022-07-22T07:28:35;39.86;19.98
72712;SHT30;60828;40.292;17.998;2022-07-22T07:31:01;40.80;19.68
72712;SHT30;60828;40.292;17.998;2022-07-22T07:33:27;41.27;19.25
72712;SHT30;60828;40.292;17.998;2022-07-22T07:35:52;41.55;19.06
72712;SHT30;60828;40.292;17.998;2022-07-22T07:38:18;42.30;18.97
72712;SHT30;60828;40.292;17.998;2022-07-22T07:40:44;40.90;19.67
72712;SHT30;60828;40.292;17.998;2022-07-22T07:43:09;40.69;19.65
72712;SHT30;60828;40.292;17.998;2022-07-22T07:45:35;40.31;20.24
72712;SHT30;60828;40.292;17.998;2022-07-22T07:48:02;40.15;20.03
72712;SHT30;60828;40.292;17.998;2022-07-22T07:50:28;40.73;20.18
72712;SHT30;60828;40.292;17.998;2022-07-22T07:52:54;41.27;19.44
72712;SHT30;60828;40.292;17.998;2022-07-22T07:55:20;41.10;20.14
72712;SHT30;60828;40.292;17.998;2022-07-22T07:57:46;40.97;20.04
72712;SHT30;60828;40.292;17.998;2022-07-22T08:00:14;41.27;19.91
72712;SHT30;60828;40.292;17.998;2022-07-22T08:02:40;41.51;19.86
72712;SHT30;60828;40.292;17.998;2022-07-22T08:05:07;39.97;20.32
72712;SHT30;60828;40.292;17.998;2022-07-22T08:07:37;39.59;21.02
72712;SHT30;60828;40.292;17.998;2022-07-22T08:10:07;39.49;21.24
72712;SHT30;60828;40.292;17.998;2022-07-22T08:12:32;39.50;20.90
72712;SHT30;60828;40.292;17.998;2022-07-22T08:15:01;39.50;20.54
72712;SHT30;60828;40.292;17.998;2022-07-22T08:17:26;40.36;20.40
72712;SHT30;60828;40.292;17.998;2022-07-22T08:19:54;40.84;20.36
72712;SHT30;60828;40.292;17.998;2022-07-22T08:22:22;41.30;19.50
72712;SHT30;60828;40.292;17.998;2022-07-22T08:24:48;41.34;19.70
72712;SHT30;60828;40.292;17.998;2022-07-22T08:27:22;41.67;20.04
72712;SHT30;60828;40.292;17.998;2022-07-22T08:29:53;41.49;20.17
72712;SHT30;60828;40.292;17.998;2022-07-22T08:32:19;41.19;20.68
72712;SHT30;60828;40.292;17.998;2022-07-22T08:34:44;41.04;20.14
72712;SHT30;60828;40.292;17.998;2022-07-22T08:37:10;41.49;20.16
72712;SHT30;60828;40.292;17.998;2022-07-22T08:39:36;41.15;20.41
72712;SHT30;60828;40.292;17.998;2022-07-22T08:42:02;40.49;21.05
72712;SHT30;60828;40.292;17.998;2022-07-22T08:44:30;40.66;20.76
72712;SHT30;60828;40.292;17.998;2022-07-22T08:46:56;41.13;20.22
72712;SHT30;60828;40.292;17.998;2022-07-22T08:49:22;40.99;20.82
72712;SHT30;60828;40.292;17.998;2022-07-22T08:51:55;41.38;20.19
72712;SHT30;60828;40.292;17.998;2022-07-22T08:54:26;41.51;20.19
72712;SHT30;60828;40.292;17.998;2022-07-22T08:56:52;41.48;20.03
72712;SHT30;60828;40.292;17.998;2022-07-22T08:59:24;40.93;20.98
72712;SHT30;60828;40.292;17.998;2022-07-22T09:02:07;40.19;21.91
72712;SHT30;60828;40.292;17.998;2022-07-22T09:04:50;40.67;21.34
72712;SHT30;60828;40.292;17.998;2022-07-22T09:07:42;40.42;20.67
72712;SHT30;60828;40.292;17.998;2022-07-22T09:10:14;40.19;21.41
72712;SHT30;60828;40.292;17.998;2022-07-22T09:13:00;39.84;22.06
72712;SHT30;60828;40.292;17.998;2022-07-22T09:15:34;39.39;22.85
72712;SHT30;60828;40.292;17.998;2022-07-22T09:18:21;38.99;22.86
72712;SHT30;60828;40.292;17.998;2022-07-22T09:21:02;38.82;23.39
72712;SHT30;60828;40.292;17.998;2022-07-22T09:23:39;39.56;22.12
72712;SHT30;60828;40.292;17.998;2022-07-22T09:26:08;39.64;23.27
72712;SHT30;60828;40.292;17.998;2022-07-22T09:28:37;39.60;23.10
72712;SHT30;60828;40.292;17.998;2022-07-22T09:31:04;39.96;22.71
72712;SHT30;60828;40.292;17.998;2022-07-22T09:33:31;40.15;22.91
72712;SHT30;60828;40.292;17.998;2022-07-22T09:36:03;39.78;22.67
72712;SHT30;60828;40.292;17.998;2022-07-22T09:38:31;39.71;22.79
72712;SHT30;60828;40.292;17.998;2022-07-22T09:41:00;39.19;23.23
72712;SHT30;60828;40.292;17.998;2022-07-22T09:43:27;39.49;23.31
72712;SHT30;60828;40.292;17.998;2022-07-22T09:45:58;39.05;23.89
72712;SHT30;60828;40.292;17.998;2022-07-22T09:48:25;39.35;23.98
72712;SHT30;60828;40.292;17.998;2022-07-22T09:50:54;38.82;24.39
72712;SHT30;60828;40.292;17.998;2022-07-22T09:53:24;38.61;24.52
72712;SHT30;60828;40.292;17.998;2022-07-22T09:55:53;38.34;24.56
72712;SHT30;60828;40.292;17.998;2022-07-22T09:58:18;38.17;25.75
72712;SHT30;60828;40.292;17.998;2022-07-22T10:00:44;38.66;25.62
72712;SHT30;60828;40.292;17.998;2022-07-22T10:03:18;38.46;25.30
72712;SHT30;60828;40.292;17.998;2022-07-22T10:05:46;38.60;25.61
72712;SHT30;60828;40.292;17.998;2022-07-22T10:08:12;38.63;26.36
72712;SHT30;60828;40.292;17.998;2022-07-22T10:10:39;38.64;26.44
72712;SHT30;60828;40.292;17.998;2022-07-22T10:13:06;39.08;26.35
72712;SHT30;60828;40.292;17.998;2022-07-22T10:15:33;39.50;25.19
72712;SHT30;60828;40.292;17.998;2022-07-22T10:18:02;39.47;25.22
72712;SHT30;60828;40.292;17.998;2022-07-22T10:20:30;39.71;25.40
72712;SHT30;60828;40.292;17.998;2022-07-22T10:23:00;39.12;26.10
72712;SHT30;60828;40.292;17.998;2022-07-22T10:25:28;39.09;25.92
72712;SHT30;60828;40.292;17.998;2022-07-22T10:27:56;38.91;26.61
72712;SHT30;60828;40.292;17.998;2022-07-22T10:36:00;38.67;26.16
72712;SHT30;60828;40.292;17.998;2022-07-22T10:38:27;39.22;23.17
72712;SHT30;60828;40.292;17.998;2022-07-22T10:40:56;39.12;24.19
72712;SHT30;60828;40.292;17.998;2022-07-22T10:43:27;38.90;23.12
72712;SHT30;60828;40.292;17.998;2022-07-22T10:46:01;39.77;22.82
72712;SHT30;60828;40.292;17.998;2022-07-22T10:48:58;39.63;26.15
72712;SHT30;60828;40.292;17.998;2022-07-22T10:51:23;39.19;24.76
72712;SHT30;60828;40.292;17.998;2022-07-22T10:53:58;39.05;24.86
72712;SHT30;60828;40.292;17.998;2022-07-22T10:56:30;39.87;24.04
72712;SHT30;60828;40.292;17.998;2022-07-22T10:59:08;40.22;23.70
72712;SHT30;60828;40.292;17.998;2022-07-22T11:01:36;39.53;24.16
72712;SHT30;60828;40.292;17.998;2022-07-22T11:04:19;39.47;23.95
72712;SHT30;60828;40.292;17.998;2022-07-22T11:06:47;39.57;23.35
72712;SHT30;60828;40.292;17.998;2022-07-22T11:09:14;39.06;23.97
72712;SHT30;60828;40.292;17.998;2022-07-22T11:11:53;39.42;24.01
72712;SHT30;60828;40.292;17.998;2022-07-22T11:14:30;38.95;23.95
72712;SHT30;60828;40.292;17.998;2022-07-22T11:17:07;38.54;24.39
72712;SHT30;60828;40.292;17.998;2022-07-22T11:19:34;38.63;24.42
72712;SHT30;60828;40.292;17.998;2022-07-22T11:22:05;39.01;24.32
72712;SHT30;60828;40.292;17.998;2022-07-22T11:24:32;38.81;24.51
72712;SHT30;60828;40.292;17.998;2022-07-22T11:26:58;38.85;24.61
72712;SHT30;60828;40.292;17.998;2022-07-22T11:31:51;39.46;23.35
72712;SHT30;60828;40.292;17.998;2022-07-22T11:34:17;39.30;23.49
72712;SHT30;60828;40.292;17.998;2022-07-22T11:36:45;39.01;23.95
72712;SHT30;60828;40.292;17.998;2022-07-22T11:39:12;39.26;23.28
72712;SHT30;60828;40.292;17.998;2022-07-22T11:41:39;39.49;22.94
72712;SHT30;60828;40.292;17.998;2022-07-22T11:44:04;39.77;23.22
72712;SHT30;60828;40.292;17.998;2022-07-22T11:46:40;40.01;23.43
72712;SHT30;60828;40.292;17.998;2022-07-22T11:49:08;40.38;22.97
72712;SHT30;60828;40.292;17.998;2022-07-22T11:51:35;39.93;23.00
72712;SHT30;60828;40.292;17.998;2022-07-22T11:54:02;39.94;23.29
72712;SHT30;60828;40.292;17.998;2022-07-22T11:56:28;40.07;23.37
72712;SHT30;60828;40.292;17.998;2022-07-22T11:58:54;39.32;24.06
72712;SHT30;60828;40.292;17.998;2022-07-22T12:01:25;39.19;25.00
72712;SHT30;60828;40.292;17.998;2022-07-22T12:03:57;39.49;25.02
72712;SHT30;60828;40.292;17.998;2022-07-22T12:06:25;39.86;24.13
72712;SHT30;60828;40.292;17.998;2022-07-22T12:08:53;39.66;24.75
72712;SHT30;60828;40.292;17.998;2022-07-22T12:11:21;39.23;25.09
72712;SHT30;60828;40.292;17.998;2022-07-22T12:13:49;39.32;24.81
72712;SHT30;60828;40.292;17.998;2022-07-22T12:16:27;39.57;25.06
72712;SHT30;60828;40.292;17.998;2022-07-22T12:19:02;38.81;25.21
72712;SHT30;60828;40.292;17.998;2022-07-22T12:21:30;38.85;24.76
72712;SHT30;60828;40.292;17.998;2022-07-22T12:24:03;38.49;25.04
72712;SHT30;60828;40.292;17.998;2022-07-22T12:26:40;38.95;25.10
72712;SHT30;60828;40.292;17.998;2022-07-22T12:31:49;38.97;24.85
72712;SHT30;60828;40.292;17.998;2022-07-22T12:34:16;38.88;24.76
72712;SHT30;60828;40.292;17.998;2022-07-22T12:36:46;39.33;24.20
72712;SHT30;60828;40.292;17.998;2022-07-22T12:39:17;39.80;22.99
72712;SHT30;60828;40.292;17.998;2022-07-22T12:41:51;39.63;23.29
72712;SHT30;60828;40.292;17.998;2022-07-22T12:44:21;39.04;23.42
72712;SHT30;60828;40.292;17.998;2022-07-22T12:46:52;39.54;23.33
72712;SHT30;60828;40.292;17.998;2022-07-22T12:49:19;39.67;22.94
72712;SHT30;60828;40.292;17.998;2022-07-22T12:52:05;39.32;22.89
72712;SHT30;60828;40.292;17.998;2022-07-22T12:54:32;39.26;23.06
72712;SHT30;60828;40.292;17.998;2022-07-22T12:56:59;39.62;22.88
72712;SHT30;60828;40.292;17.998;2022-07-22T12:59:24;39.59;22.53
72712;SHT30;60828;40.292;17.998;2022-07-22T13:01:50;39.77;22.45
72712;SHT30;60828;40.292;17.998;2022-07-22T13:04:15;39.64;22.61
72712;SHT30;60828;40.292;17.998;2022-07-22T13:06:40;40.15;22.13
72712;SHT30;60828;40.292;17.998;2022-07-22T13:09:06;40.27;21.93
72712;SHT30;60828;40.292;17.998;2022-07-22T13:11:33;40.45;21.96
72712;SHT30;60828;40.292;17.998;2022-07-22T13:14:05;40.18;22.52
72712;SHT30;60828;40.292;17.998;2022-07-22T13:16:32;39.96;22.35
72712;SHT30;60828;40.292;17.998;2022-07-22T13:18:57;40.10;22.66
72712;SHT30;60828;40.292;17.998;2022-07-22T13:21:23;39.16;23.07
72712;SHT30;60828;40.292;17.998;2022-07-22T13:23:48;39.16;23.34
72712;SHT30;60828;40.292;17.998;2022-07-22T13:26:14;39.90;22.91
72712;SHT30;60828;40.292;17.998;2022-07-22T13:28:39;39.62;22.61
72712;SHT30;60828;40.292;17.998;2022-07-22T13:31:05;39.76;22.17
72712;SHT30;60828;40.292;17.998;2022-07-22T13:33:30;39.63;22.80
72712;SHT30;60828;40.292;17.998;2022-07-22T13:35:55;39.52;23.04
72712;SHT30;60828;40.292;17.998;2022-07-22T13:38:21;39.80;22.43
72712;SHT30;60828;40.292;17.998;2022-07-22T13:40:46;39.29;23.05
72712;SHT30;60828;40.292;17.998;2022-07-22T13:43:17;39.96;22.81
72712;SHT30;60828;40.292;17.998;2022-07-22T13:45:43;39.69;22.97
72712;SHT30;60828;40.292;17.998;2022-07-22T13:48:09;39.33;23.19
72712;SHT30;60828;40.292;17.998;2022-07-22T13:50:34;39.43;23.05
72712;SHT30;60828;40.292;17.998;2022-07-22T13:53:00;39.60;22.80
72712;SHT30;60828;40.292;17.998;2022-07-22T13:55:26;40.08;22.11
72712;SHT30;60828;40.292;17.998;2022-07-22T13:57:52;39.80;22.89
72712;SHT30;60828;40.292;17.998;2022-07-22T14:00:17;39.63;22.52
72712;SHT30;60828;40.292;17.998;2022-07-22T14:02:45;39.56;22.81
72712;SHT30;60828;40.292;17.998;2022-07-22T14:05:11;39.76;22.43
72712;SHT30;60828;40.292;17.998;2022-07-22T14:07:37;39.71;22.84
72712;SHT30;60828;40.292;17.998;2022-07-22T14:10:03;39.21;22.62
72712;SHT30;60828;40.292;17.998;2022-07-22T14:12:29;39.35;22.85
72712;SHT30;60828;40.292;17.998;2022-07-22T14:14:55;39.54;22.47
72712;SHT30;60828;40.292;17.998;2022-07-22T14:17:20;39.33;22.86
72712;SHT30;60828;40.292;17.998;2022-07-22T14:19:46;39.42;22.86
72712;SHT30;60828;40.292;17.998;2022-07-22T14:22:11;39.81;22.75
72712;SHT30;60828;40.292;17.998;2022-07-22T14:24:37;39.42;22.20
72712;SHT30;60828;40.292;17.998;2022-07-22T14:27:03;39.21;22.36
72712;SHT30;60828;40.292;17.998;2022-07-22T14:29:28;39.09;22.18
72712;SHT30;60828;40.292;17.998;2022-07-22T14:31:54;38.97;22.67
72712;SHT30;60828;40.292;17.998;2022-07-22T14:34:19;39.27;22.17
72712;SHT30;60828;40.292;17.998;2022-07-22T14:36:45;39.33;21.99
72712;SHT30;60828;40.292;17.998;2022-07-22T14:39:10;40.11;21.20
72712;SHT30;60828;40.292;17.998;2022-07-22T14:41:36;39.62;21.46
72712;SHT30;60828;40.292;17.998;2022-07-22T14:44:01;39.76;21.12
72712;SHT30;60828;40.292;17.998;2022-07-22T14:46:27;40.10;21.03
72712;SHT30;60828;40.292;17.998;2022-07-22T14:48:52;39.84;21.42
72712;SHT30;60828;40.292;17.998;2022-07-22T14:51:22;39.46;21.81
72712;SHT30;60828;40.292;17.998;2022-07-22T14:53:48;39.27;21.92
72712;SHT30;60828;40.292;17.998;2022-07-22T14:56:13;39.26;21.81
72712;SHT30;60828;40.292;17.998;2022-07-22T14:58:39;39.12;21.71
72712;SHT30;60828;40.292;17.998;2022-07-22T15:01:04;39.11;21.60
72712;SHT30;60828;40.292;17.998;2022-07-22T15:03:30;38.95;22.09
72712;SHT30;60828;40.292;17.998;2022-07-22T15:05:55;39.01;22.14
72712;SHT30;60828;40.292;17.998;2022-07-22T15:08:21;39.19;22.05
72712;SHT30;60828;40.292;17.998;2022-07-22T15:10:46;38.92;21.93
72712;SHT30;60828;40.292;17.998;2022-07-22T15:13:12;38.79;22.00
72712;SHT30;60828;40.292;17.998;2022-07-22T15:15:37;38.51;22.00
72712;SHT30;60828;40.292;17.998;2022-07-22T15:18:03;38.88;22.10
72712;SHT30;60828;40.292;17.998;2022-07-22T15:20:29;38.90;22.38
72712;SHT30;60828;40.292;17.998;2022-07-22T15:22:58;38.99;22.22
72712;SHT30;60828;40.292;17.998;2022-07-22T15:25:23;38.99;22.05